createdAt,value
2023-06-07T00:00:30.989Z,1143.00
2023-06-07T00:01:30.986Z,1137.00
2023-06-07T00:02:42.938Z,1141.00
2023-06-07T00:03:32.504Z,1141.00
2023-06-07T00:04:31.159Z,1143.00
2023-06-07T00:05:31.098Z,1140.00
2023-06-07T00:06:31.111Z,1126.00
2023-06-07T00:07:31.087Z,1134.00
2023-06-07T00:08:31.092Z,1136.00
2023-06-07T00:09:31.104Z,1124.00
2023-06-07T00:10:31.121Z,1140.00
2023-06-07T00:11:31.136Z,1126.00
2023-06-07T00:12:31.227Z,1116.00
2023-06-07T00:13:31.159Z,1115.00
2023-06-07T00:14:31.234Z,1129.00
2023-06-07T00:15:31.294Z,1127.00
2023-06-07T00:16:31.338Z,1125.00
2023-06-07T00:17:31.452Z,1128.00
2023-06-07T00:18:31.420Z,1116.00
2023-06-07T00:19:31.391Z,1121.00
2023-06-07T00:20:31.433Z,1088.00
2023-06-07T00:21:31.528Z,1111.00
2023-06-07T00:22:31.521Z,1117.00
2023-06-07T00:23:31.607Z,1120.00
2023-06-07T00:24:31.633Z,1117.00
2023-06-07T00:25:31.630Z,1124.00
2023-06-07T00:26:31.617Z,1125.00
2023-06-07T00:27:31.668Z,1116.00
2023-06-07T00:28:31.691Z,1124.00
2023-06-07T00:29:31.735Z,1135.00
2023-06-07T00:30:31.725Z,1128.00
2023-06-07T00:31:31.810Z,1116.00
2023-06-07T00:32:31.796Z,1097.00
2023-06-07T00:33:31.834Z,1087.00
2023-06-07T00:34:31.837Z,1082.00
2023-06-07T00:35:31.875Z,1090.00
2023-06-07T00:36:31.868Z,1095.00
2023-06-07T00:37:31.928Z,1088.00
2023-06-07T00:38:31.922Z,1097.00
2023-06-07T00:39:31.919Z,1112.00
2023-06-07T00:40:31.947Z,1112.00
2023-06-07T00:41:31.961Z,1104.00
2023-06-07T00:42:31.965Z,1119.00
2023-06-07T00:43:32.050Z,1123.00
2023-06-07T00:44:31.994Z,1134.00
2023-06-07T00:45:32.032Z,1125.00
2023-06-07T00:46:32.039Z,1134.00
2023-06-07T00:47:32.186Z,1133.00
2023-06-07T00:48:32.151Z,1113.00
2023-06-07T00:49:32.130Z,1104.00
2023-06-07T00:50:32.194Z,1097.00
2023-06-07T00:51:32.195Z,1096.00
2023-06-07T00:52:32.242Z,1086.00
2023-06-07T00:53:32.266Z,1088.00
2023-06-07T00:54:32.332Z,1076.00
2023-06-07T00:55:32.319Z,1078.00
2023-06-07T00:56:32.327Z,1070.00
2023-06-07T00:57:32.349Z,1079.00
2023-06-07T00:58:32.420Z,1089.00
2023-06-07T00:59:32.384Z,1088.00
2023-06-07T01:00:32.480Z,1092.00
2023-06-07T01:01:32.495Z,1109.00
2023-06-07T01:02:32.429Z,1094.00
2023-06-07T01:03:32.631Z,1089.00
2023-06-07T01:04:32.420Z,1111.00
2023-06-07T01:05:32.453Z,1108.00
2023-06-07T01:06:32.419Z,1109.00
2023-06-07T01:07:32.460Z,1100.00
2023-06-07T01:08:32.462Z,1085.00
2023-06-07T01:09:32.459Z,1085.00
2023-06-07T01:10:32.534Z,1091.00
2023-06-07T01:11:32.554Z,1105.00
2023-06-07T01:12:32.605Z,1085.00
2023-06-07T01:13:32.625Z,1098.00
2023-06-07T01:14:32.640Z,1107.00
2023-06-07T01:15:32.673Z,1121.00
2023-06-07T01:16:32.708Z,1107.00
2023-06-07T01:17:32.726Z,1077.00
2023-06-07T01:18:32.697Z,1085.00
2023-06-07T01:19:32.732Z,1072.00
2023-06-07T01:20:32.733Z,1071.00
2023-06-07T01:21:32.786Z,1052.00
2023-06-07T01:22:32.725Z,1051.00
2023-06-07T01:23:32.853Z,1053.00
2023-06-07T01:24:32.752Z,1054.00
2023-06-07T01:25:32.749Z,1033.00
2023-06-07T01:26:32.775Z,1003.00
2023-06-07T01:27:32.759Z,1010.00
2023-06-07T01:28:32.752Z,1011.00
2023-06-07T01:29:32.785Z,1011.00
2023-06-07T01:30:32.842Z,1019.00
2023-06-07T01:31:32.815Z,1024.00
2023-06-07T01:32:32.854Z,1013.00
2023-06-07T01:33:32.818Z,1025.00
2023-06-07T01:34:32.830Z,1022.00
2023-06-07T01:35:32.839Z,1030.00
2023-06-07T01:36:32.861Z,1034.00
2023-06-07T01:37:32.862Z,1014.00
2023-06-07T01:38:32.850Z,989.00
2023-06-07T01:39:32.864Z,1029.00
2023-06-07T01:40:32.858Z,1054.00
2023-06-07T01:41:32.897Z,1051.00
2023-06-07T01:42:32.890Z,1022.00
2023-06-07T01:43:32.881Z,1063.00
2023-06-07T01:44:32.899Z,1036.00
2023-06-07T01:45:32.918Z,1043.00
2023-06-07T01:46:33.010Z,1056.00
2023-06-07T01:47:32.946Z,1072.00
2023-06-07T01:48:32.964Z,1014.00
2023-06-07T01:49:32.930Z,1010.00
2023-06-07T01:50:32.915Z,1015.00
2023-06-07T01:51:32.944Z,1019.00
2023-06-07T01:52:32.936Z,1019.00
2023-06-07T01:53:32.920Z,991.00
2023-06-07T01:54:32.940Z,997.00
2023-06-07T01:55:32.972Z,1013.00
2023-06-07T01:56:32.952Z,1002.00
2023-06-07T01:57:32.989Z,974.00
2023-06-07T01:58:32.980Z,989.00
2023-06-07T01:59:33.014Z,993.00
2023-06-07T02:00:33.006Z,990.00
2023-06-07T02:01:33.127Z,982.00
2023-06-07T02:02:33.052Z,969.00
2023-06-07T02:03:33.023Z,908.00
2023-06-07T02:04:33.026Z,935.00
2023-06-07T02:05:33.056Z,869.00
2023-06-07T02:06:33.079Z,928.00
2023-06-07T02:07:33.065Z,986.00
2023-06-07T02:08:33.116Z,1011.00
2023-06-07T02:09:33.089Z,1017.00
2023-06-07T02:10:33.126Z,1032.00
2023-06-07T02:11:33.174Z,1004.00
2023-06-07T02:12:33.117Z,901.00
2023-06-07T02:13:33.122Z,924.00
2023-06-07T02:14:33.145Z,972.00
2023-06-07T02:15:33.138Z,972.00
2023-06-07T02:16:33.176Z,930.00
2023-06-07T02:17:33.435Z,934.00
2023-06-07T02:18:33.159Z,885.00
2023-06-07T02:19:33.200Z,926.00
2023-06-07T02:20:33.198Z,921.00
2023-06-07T02:21:33.219Z,900.00
2023-06-07T02:22:33.240Z,902.00
2023-06-07T02:23:33.284Z,819.00
2023-06-07T02:24:33.251Z,805.00
2023-06-07T02:25:33.272Z,840.00
2023-06-07T02:26:33.279Z,882.00
2023-06-07T02:27:33.274Z,872.00
2023-06-07T02:28:33.379Z,899.00
2023-06-07T02:29:33.339Z,923.00
2023-06-07T02:30:33.324Z,902.00
2023-06-07T02:31:33.387Z,863.00
2023-06-07T02:32:33.371Z,836.00
2023-06-07T02:33:33.360Z,814.00
2023-06-07T02:34:33.397Z,809.00
2023-06-07T02:35:33.404Z,838.00
2023-06-07T02:36:33.410Z,830.00
2023-06-07T02:37:33.429Z,851.00
2023-06-07T02:38:33.425Z,839.00
2023-06-07T02:39:33.463Z,781.00
2023-06-07T02:40:33.464Z,726.00
2023-06-07T02:41:33.495Z,721.00
2023-06-07T02:42:33.492Z,742.00
2023-06-07T02:43:33.512Z,763.00
2023-06-07T02:44:33.505Z,809.00
2023-06-07T02:45:33.548Z,841.00
2023-06-07T02:46:33.534Z,766.00
2023-06-07T02:47:33.586Z,771.00
2023-06-07T02:48:33.556Z,809.00
2023-06-07T02:49:33.565Z,827.00
2023-06-07T02:50:33.580Z,817.00
2023-06-07T02:51:33.590Z,794.00
2023-06-07T02:52:33.580Z,793.00
2023-06-07T02:53:33.647Z,799.00
2023-06-07T02:54:33.643Z,743.00
2023-06-07T02:55:33.691Z,727.00
2023-06-07T02:56:33.669Z,751.00
2023-06-07T02:57:33.680Z,756.00
2023-06-07T02:58:33.692Z,709.00
2023-06-07T02:59:33.709Z,713.00
2023-06-07T03:00:33.749Z,746.00
2023-06-07T03:01:33.935Z,721.00
2023-06-07T03:02:33.851Z,698.00
2023-06-07T03:03:33.880Z,682.00
2023-06-07T03:04:33.811Z,731.00
2023-06-07T03:05:33.814Z,762.00
2023-06-07T03:06:33.863Z,767.00
2023-06-07T03:07:33.834Z,735.00
2023-06-07T03:08:33.858Z,720.00
2023-06-07T03:09:33.897Z,765.00
2023-06-07T03:10:33.911Z,799.00
2023-06-07T03:11:33.923Z,801.00
2023-06-07T03:12:33.886Z,777.00
2023-06-07T03:13:33.891Z,739.00
2023-06-07T03:14:33.943Z,719.00
2023-06-07T03:15:33.981Z,742.00
2023-06-07T03:16:33.999Z,735.00
2023-06-07T03:17:33.998Z,763.00
2023-06-07T03:18:33.974Z,770.00
2023-06-07T03:19:34.017Z,739.00
2023-06-07T03:20:34.048Z,741.00
2023-06-07T03:21:34.058Z,739.00
2023-06-07T03:22:34.095Z,763.00
2023-06-07T03:23:34.100Z,776.00
2023-06-07T03:24:34.103Z,806.00
2023-06-07T03:25:34.774Z,784.00
2023-06-07T03:26:34.165Z,753.00
2023-06-07T03:27:34.168Z,716.00
2023-06-07T03:28:34.185Z,721.00
2023-06-07T03:29:34.244Z,733.00
2023-06-07T03:30:34.305Z,730.00
2023-06-07T03:31:34.291Z,723.00
2023-06-07T03:32:34.378Z,700.00
2023-06-07T03:33:34.313Z,686.00
2023-06-07T03:34:34.353Z,672.00
2023-06-07T03:35:34.390Z,706.00
2023-06-07T03:36:34.399Z,733.00
2023-06-07T03:37:34.413Z,742.00
2023-06-07T03:38:34.451Z,738.00
2023-06-07T03:39:34.504Z,733.00
2023-06-07T03:40:34.529Z,761.00
2023-06-07T03:41:34.554Z,742.00
2023-06-07T03:42:34.556Z,739.00
2023-06-07T03:43:34.571Z,735.00
2023-06-07T03:44:34.613Z,749.00
2023-06-07T03:45:34.596Z,724.00
2023-06-07T03:46:34.638Z,734.00
2023-06-07T03:47:34.669Z,738.00
2023-06-07T03:48:34.705Z,744.00
2023-06-07T03:49:34.701Z,749.00
2023-06-07T03:50:34.708Z,720.00
2023-06-07T03:51:34.746Z,726.00
2023-06-07T03:52:34.786Z,741.00
2023-06-07T03:53:34.788Z,719.00
2023-06-07T03:54:34.795Z,730.00
2023-06-07T03:55:34.821Z,717.00
2023-06-07T03:56:34.902Z,703.00
2023-06-07T03:57:34.848Z,707.00
2023-06-07T03:58:34.868Z,743.00
2023-06-07T03:59:34.912Z,738.00
2023-06-07T04:00:34.894Z,720.00
2023-06-07T04:01:34.907Z,718.00
2023-06-07T04:02:35.040Z,714.00
2023-06-07T04:03:35.056Z,731.00
2023-06-07T04:04:35.010Z,750.00
2023-06-07T04:05:34.971Z,767.00
2023-06-07T04:06:34.995Z,772.00
2023-06-07T04:07:35.004Z,772.00
2023-06-07T04:08:35.015Z,751.00
2023-06-07T04:09:35.025Z,764.00
2023-06-07T04:10:35.021Z,779.00
2023-06-07T04:11:35.040Z,785.00
2023-06-07T04:12:35.050Z,775.00
2023-06-07T04:13:35.083Z,803.00
2023-06-07T04:14:35.062Z,778.00
2023-06-07T04:15:35.105Z,807.00
2023-06-07T04:16:35.139Z,817.00
2023-06-07T04:17:35.160Z,809.00
2023-06-07T04:18:35.161Z,801.00
2023-06-07T04:19:35.139Z,823.00
2023-06-07T04:20:35.143Z,846.00
2023-06-07T04:21:35.181Z,863.00
2023-06-07T04:22:35.194Z,860.00
2023-06-07T04:23:35.233Z,866.00
2023-06-07T04:24:35.207Z,830.00
2023-06-07T04:25:35.230Z,814.00
2023-06-07T04:26:35.250Z,819.00
2023-06-07T04:27:35.288Z,786.00
2023-06-07T04:28:35.282Z,810.00
2023-06-07T04:29:35.307Z,826.00
2023-06-07T04:30:35.300Z,841.00
2023-06-07T04:31:35.526Z,837.00
2023-06-07T04:32:35.364Z,865.00
2023-06-07T04:33:35.335Z,850.00
2023-06-07T04:34:35.362Z,834.00
2023-06-07T04:35:35.367Z,844.00
2023-06-07T04:36:35.364Z,853.00
2023-06-07T04:37:35.419Z,889.00
2023-06-07T04:38:43.352Z,918.00
2023-06-07T04:39:36.465Z,919.00
2023-06-07T04:40:35.456Z,906.00
2023-06-07T04:41:35.492Z,918.00
2023-06-07T04:42:35.475Z,913.00
2023-06-07T04:43:35.534Z,912.00
2023-06-07T04:44:35.521Z,909.00
2023-06-07T04:45:35.503Z,913.00
2023-06-07T04:46:35.610Z,927.00
2023-06-07T04:47:35.565Z,944.00
2023-06-07T04:48:35.600Z,945.00
2023-06-07T04:49:35.559Z,956.00
2023-06-07T04:50:35.531Z,964.00
2023-06-07T04:51:35.599Z,934.00
2023-06-07T04:52:35.572Z,946.00
2023-06-07T04:53:35.599Z,963.00
2023-06-07T04:54:35.598Z,971.00
2023-06-07T04:55:35.655Z,984.00
2023-06-07T04:56:35.583Z,984.00
2023-06-07T04:57:35.597Z,981.00
2023-06-07T04:58:35.593Z,979.00
2023-06-07T04:59:35.736Z,981.00
2023-06-07T05:00:35.614Z,972.00
2023-06-07T05:01:35.678Z,973.00
2023-06-07T05:02:35.689Z,967.00
2023-06-07T05:03:35.635Z,962.00
2023-06-07T05:04:35.642Z,960.00
2023-06-07T05:05:35.694Z,956.00
2023-06-07T05:06:35.696Z,950.00
2023-06-07T05:07:35.663Z,946.00
2023-06-07T05:08:35.702Z,934.00
2023-06-07T05:09:35.774Z,930.00
2023-06-07T05:10:35.719Z,927.00
2023-06-07T05:11:35.736Z,929.00
2023-06-07T05:12:35.722Z,921.00
2023-06-07T05:13:35.756Z,919.00
2023-06-07T05:14:35.826Z,917.00
2023-06-07T05:15:35.840Z,925.00
2023-06-07T05:16:35.894Z,921.00
2023-06-07T05:17:36.074Z,929.00
2023-06-07T05:18:35.932Z,943.00
2023-06-07T05:19:35.962Z,947.00
2023-06-07T05:20:35.958Z,934.00
2023-06-07T05:21:35.997Z,945.00
2023-06-07T05:22:35.998Z,934.00
2023-06-07T05:23:35.992Z,952.00
2023-06-07T05:24:36.009Z,952.00
2023-06-07T05:25:36.013Z,963.00
2023-06-07T05:26:36.069Z,959.00
2023-06-07T05:27:36.074Z,962.00
2023-06-07T05:28:36.074Z,965.00
2023-06-07T05:29:36.109Z,971.00
2023-06-07T05:30:36.154Z,971.00
2023-06-07T05:31:36.154Z,974.00
2023-06-07T05:32:36.179Z,965.00
2023-06-07T05:33:36.151Z,984.00
2023-06-07T05:34:36.161Z,976.00
2023-06-07T05:35:36.157Z,970.00
2023-06-07T05:36:36.362Z,983.00
2023-06-07T05:37:36.218Z,986.00
2023-06-07T05:38:36.203Z,985.00
2023-06-07T05:39:36.233Z,984.00
2023-06-07T05:40:36.246Z,969.00
2023-06-07T05:41:36.254Z,977.00
2023-06-07T05:42:36.264Z,989.00
2023-06-07T05:43:36.246Z,1006.00
2023-06-07T05:44:36.257Z,1020.00
2023-06-07T05:45:36.340Z,1019.00
2023-06-07T05:46:36.804Z,1044.00
2023-06-07T05:47:36.447Z,1048.00
2023-06-07T05:48:36.418Z,1054.00
2023-06-07T05:49:39.297Z,1069.00
2023-06-07T05:50:36.466Z,1082.00
2023-06-07T05:51:36.492Z,1095.00
2023-06-07T05:52:36.499Z,1096.00
2023-06-07T05:53:36.511Z,1101.00
2023-06-07T05:54:36.496Z,1110.00
2023-06-07T05:55:36.455Z,1115.00
2023-06-07T05:56:36.518Z,1114.00
2023-06-07T05:57:36.475Z,1119.00
2023-06-07T05:58:36.482Z,1105.00
2023-06-07T05:59:36.492Z,1107.00
2023-06-07T06:00:36.479Z,1101.00
2023-06-07T06:01:36.502Z,1092.00
2023-06-07T06:02:36.543Z,1099.00
2023-06-07T06:03:36.496Z,1099.00
2023-06-07T06:04:36.558Z,1121.00
2023-06-07T06:05:36.527Z,1121.00
2023-06-07T06:06:36.526Z,1143.00
2023-06-07T06:07:36.568Z,1140.00
2023-06-07T06:08:36.581Z,1156.00
2023-06-07T06:09:36.587Z,1169.00
2023-06-07T06:10:36.583Z,1175.00
2023-06-07T06:11:36.614Z,1183.00
2023-06-07T06:12:36.604Z,1200.00
2023-06-07T06:13:36.630Z,1198.00
2023-06-07T06:14:36.597Z,1194.00
2023-06-07T06:15:36.597Z,1197.00
2023-06-07T06:16:36.661Z,1213.00
2023-06-07T06:17:36.667Z,1230.00
2023-06-07T06:18:36.606Z,1235.00
2023-06-07T06:19:36.596Z,1240.00
2023-06-07T06:20:36.611Z,1245.00
2023-06-07T06:21:36.693Z,1256.00
2023-06-07T06:22:36.666Z,1256.00
2023-06-07T06:23:36.667Z,1264.00
2023-06-07T06:24:36.634Z,1272.00
2023-06-07T06:25:36.659Z,1284.00
2023-06-07T06:26:36.660Z,1283.00
2023-06-07T06:27:36.682Z,1294.00
2023-06-07T06:28:36.655Z,1293.00
2023-06-07T06:29:36.683Z,1295.00
2023-06-07T06:30:36.709Z,1303.00
2023-06-07T06:31:36.749Z,1318.00
2023-06-07T06:32:36.711Z,1322.00
2023-06-07T06:33:36.846Z,1321.00
2023-06-07T06:34:36.717Z,1319.00
2023-06-07T06:35:36.733Z,1322.00
2023-06-07T06:36:36.745Z,1311.00
2023-06-07T06:37:36.691Z,1307.00
2023-06-07T06:38:36.712Z,1308.00
2023-06-07T06:39:36.721Z,1314.00
2023-06-07T06:40:36.715Z,1305.00
2023-06-07T06:41:36.890Z,1305.00
2023-06-07T06:42:36.751Z,1295.00
2023-06-07T06:43:36.806Z,1308.00
2023-06-07T06:44:36.748Z,1308.00
2023-06-07T06:45:36.748Z,1322.00
2023-06-07T06:46:36.822Z,1317.00
2023-06-07T06:47:36.803Z,1318.00
2023-06-07T06:48:36.835Z,1301.00
2023-06-07T06:49:36.760Z,1287.00
2023-06-07T06:50:36.992Z,1308.00
2023-06-07T06:51:36.780Z,1318.00
2023-06-07T06:52:36.771Z,1333.00
2023-06-07T06:53:36.790Z,1353.00
2023-06-07T06:54:36.811Z,1355.00
2023-06-07T06:55:36.804Z,1341.00
2023-06-07T06:56:36.819Z,1347.00
2023-06-07T06:57:36.803Z,1336.00
2023-06-07T06:58:36.807Z,1339.00
2023-06-07T06:59:36.858Z,1343.00
2023-06-07T07:00:36.947Z,1335.00
2023-06-07T07:01:36.851Z,1323.00
2023-06-07T07:02:36.836Z,1321.00
2023-06-07T07:03:36.846Z,1332.00
2023-06-07T07:04:36.977Z,1323.00
2023-06-07T07:05:37.060Z,1315.00
2023-06-07T07:06:36.864Z,1314.00
2023-06-07T07:07:36.834Z,1315.00
2023-06-07T07:08:36.893Z,1314.00
2023-06-07T07:09:36.875Z,1307.00
2023-06-07T07:10:36.923Z,1305.00
2023-06-07T07:11:36.907Z,1310.00
2023-06-07T07:12:36.914Z,1310.00
2023-06-07T07:13:36.928Z,1312.00
2023-06-07T07:14:36.937Z,1314.00
2023-06-07T07:15:36.930Z,1313.00
2023-06-07T07:16:39.180Z,1304.00
2023-06-07T07:17:36.959Z,1306.00
2023-06-07T07:18:36.941Z,1297.00
2023-06-07T07:19:37.070Z,1286.00
2023-06-07T07:20:36.954Z,1284.00
2023-06-07T07:21:37.007Z,1285.00
2023-06-07T07:22:36.974Z,1288.00
2023-06-07T07:23:37.017Z,1283.00
2023-06-07T07:24:37.296Z,1278.00
2023-06-07T07:25:37.065Z,1279.00
2023-06-07T07:26:37.038Z,1276.00
2023-06-07T07:27:37.117Z,1270.00
2023-06-07T07:28:37.048Z,1283.00
2023-06-07T07:29:37.041Z,1268.00
2023-06-07T07:30:37.057Z,1266.00
2023-06-07T07:31:37.085Z,1269.00
2023-06-07T07:32:37.071Z,1264.00
2023-06-07T07:33:37.100Z,1249.00
2023-06-07T07:34:38.081Z,1249.00
2023-06-07T07:35:37.090Z,1260.00
2023-06-07T07:36:37.114Z,1258.00
2023-06-07T07:37:37.124Z,1254.00
2023-06-07T07:38:37.116Z,1250.00
2023-06-07T07:39:37.104Z,1331.00
2023-06-07T07:40:37.231Z,1270.00
2023-06-07T07:41:37.150Z,1248.00
2023-06-07T07:42:37.136Z,1242.00
2023-06-07T07:43:38.396Z,1257.00
2023-06-07T07:44:37.193Z,1266.00
2023-06-07T07:45:37.146Z,1244.00
2023-06-07T07:46:37.158Z,1241.00
2023-06-07T07:47:37.858Z,1237.00
2023-06-07T07:48:37.136Z,1247.00
2023-06-07T07:49:37.142Z,1240.00
2023-06-07T07:50:37.167Z,1246.00
2023-06-07T07:51:37.158Z,1244.00
2023-06-07T07:52:37.270Z,1237.00
2023-06-07T07:53:37.137Z,1220.00
2023-06-07T07:54:37.178Z,1224.00
2023-06-07T07:55:37.186Z,1230.00
2023-06-07T07:56:37.189Z,1233.00
2023-06-07T07:57:37.254Z,1260.00
2023-06-07T07:58:37.214Z,1273.00
2023-06-07T07:59:37.169Z,1277.00
2023-06-07T08:00:37.179Z,1275.00
2023-06-07T08:01:37.224Z,1275.00
2023-06-07T08:02:37.323Z,1283.00
2023-06-07T08:03:37.535Z,1262.00
2023-06-07T08:04:37.173Z,1262.00
2023-06-07T08:05:37.221Z,1274.00
2023-06-07T08:06:37.192Z,1290.00
2023-06-07T08:07:37.265Z,1297.00
2023-06-07T08:08:37.214Z,1293.00
2023-06-07T08:09:37.219Z,1288.00
2023-06-07T08:10:37.191Z,1266.00
2023-06-07T08:11:37.220Z,1279.00
2023-06-07T08:12:37.203Z,1267.00
2023-06-07T08:13:37.221Z,1257.00
2023-06-07T08:14:37.211Z,1252.00
2023-06-07T08:15:37.209Z,1251.00
2023-06-07T08:16:37.208Z,1248.00
2023-06-07T08:17:37.208Z,1240.00
2023-06-07T08:18:37.262Z,1237.00
2023-06-07T08:19:37.243Z,1225.00
2023-06-07T08:20:37.234Z,1233.00
2023-06-07T08:21:37.232Z,1222.00
2023-06-07T08:22:37.203Z,1202.00
2023-06-07T08:23:37.236Z,1208.00
2023-06-07T08:24:37.232Z,1192.00
2023-06-07T08:25:37.234Z,1196.00
2023-06-07T08:26:37.227Z,1172.00
2023-06-07T08:27:37.298Z,1178.00
2023-06-07T08:28:37.214Z,1168.00
2023-06-07T08:29:37.236Z,1164.00
2023-06-07T08:30:37.249Z,1153.00
2023-06-07T08:31:37.288Z,1152.00
2023-06-07T08:32:37.284Z,1175.00
2023-06-07T08:33:37.250Z,1148.00
2023-06-07T08:34:37.263Z,1115.00
2023-06-07T08:35:37.242Z,1149.00
2023-06-07T08:36:37.284Z,1160.00
2023-06-07T08:37:37.281Z,1129.00
2023-06-07T08:38:37.340Z,1142.00
2023-06-07T08:39:37.390Z,1142.00
2023-06-07T08:40:37.438Z,1129.00
2023-06-07T08:41:37.816Z,1147.00
2023-06-07T08:42:37.556Z,1178.00
2023-06-07T08:43:37.580Z,1233.00
2023-06-07T08:44:37.676Z,1246.00
2023-06-07T08:45:40.496Z,1282.00
2023-06-07T08:46:37.840Z,1284.00
2023-06-07T08:47:37.825Z,1289.00
2023-06-07T08:48:37.778Z,1302.00
2023-06-07T08:49:37.760Z,1339.00
2023-06-07T08:50:37.805Z,1382.00
2023-06-07T08:51:37.781Z,1414.00
2023-06-07T08:52:37.765Z,1412.00
2023-06-07T08:53:37.827Z,1376.00
2023-06-07T08:54:37.788Z,1391.00
2023-06-07T08:55:37.796Z,1371.00
2023-06-07T08:56:37.824Z,1363.00
2023-06-07T08:57:38.065Z,1382.00
2023-06-07T08:58:37.837Z,1363.00
2023-06-07T08:59:37.799Z,1350.00
2023-06-07T09:00:37.786Z,1346.00
2023-06-07T09:01:37.916Z,1334.00
2023-06-07T09:02:37.899Z,1332.00
2023-06-07T09:03:38.049Z,1330.00
2023-06-07T09:04:37.954Z,1336.00
2023-06-07T09:05:38.022Z,1322.00
2023-06-07T09:06:38.071Z,1315.00
2023-06-07T09:07:38.169Z,1322.00
2023-06-07T09:08:38.182Z,1303.00
2023-06-07T09:09:38.242Z,1293.00
2023-06-07T09:10:38.329Z,1291.00
2023-06-07T09:11:38.404Z,1282.00
2023-06-07T09:12:38.437Z,1281.00
2023-06-07T09:13:38.476Z,1269.00
2023-06-07T09:14:38.524Z,1267.00
2023-06-07T09:15:38.642Z,1285.00
2023-06-07T09:16:38.795Z,1312.00
2023-06-07T09:17:38.802Z,1313.00
2023-06-07T09:18:38.868Z,1305.00
2023-06-07T09:19:38.853Z,1288.00
2023-06-07T09:20:38.933Z,1277.00
2023-06-07T09:21:39.022Z,1263.00
2023-06-07T09:22:39.048Z,1254.00
2023-06-07T09:23:39.174Z,1235.00
2023-06-07T09:24:39.171Z,1229.00
2023-06-07T09:25:39.274Z,1227.00
2023-06-07T09:26:39.756Z,1223.00
2023-06-07T09:27:39.389Z,1208.00
2023-06-07T09:28:39.449Z,1198.00
2023-06-07T09:29:39.548Z,1215.00
2023-06-07T09:30:39.577Z,1204.00
2023-06-07T09:31:39.715Z,1199.00
2023-06-07T09:32:39.758Z,1228.00
2023-06-07T09:33:39.807Z,1187.00
2023-06-07T09:34:39.806Z,1163.00
2023-06-07T09:35:39.902Z,1163.00
2023-06-07T09:36:40.038Z,1174.00
2023-06-07T09:37:40.071Z,1208.00
2023-06-07T09:38:40.099Z,1213.00
2023-06-07T09:39:40.155Z,1232.00
2023-06-07T09:40:40.225Z,1253.00
2023-06-07T09:41:40.292Z,1306.00
2023-06-07T09:42:40.301Z,1307.00
2023-06-07T09:43:40.379Z,1331.00
2023-06-07T09:44:40.451Z,1351.00
2023-06-07T09:45:40.676Z,1325.00
2023-06-07T09:46:40.593Z,1332.00
2023-06-07T09:47:40.768Z,1330.00
2023-06-07T09:48:40.762Z,1363.00
2023-06-07T09:49:40.705Z,1381.00
2023-06-07T09:50:40.780Z,1423.00
2023-06-07T09:51:40.817Z,1346.00
2023-06-07T09:52:40.767Z,1323.00
2023-06-07T09:53:40.848Z,1336.00
2023-06-07T09:54:40.907Z,1350.00
2023-06-07T09:55:40.926Z,1340.00
2023-06-07T09:56:40.916Z,1357.00
2023-06-07T09:57:40.959Z,1368.00
2023-06-07T09:58:41.076Z,1366.00
2023-06-07T09:59:41.055Z,1344.00
2023-06-07T10:00:41.155Z,1372.00
2023-06-07T10:01:41.483Z,1359.00
2023-06-07T10:02:41.266Z,1326.00
2023-06-07T10:03:41.957Z,1340.00
2023-06-07T10:04:41.321Z,1350.00
2023-06-07T10:05:41.351Z,1356.00
2023-06-07T10:06:41.438Z,1349.00
2023-06-07T10:07:41.539Z,1351.00
2023-06-07T10:08:41.472Z,1361.00
2023-06-07T10:09:41.544Z,1395.00
2023-06-07T10:10:41.554Z,1405.00
2023-06-07T10:11:41.608Z,1423.00
2023-06-07T10:12:41.706Z,1404.00
2023-06-07T10:13:41.794Z,1422.00
2023-06-07T10:14:41.793Z,1425.00
2023-06-07T10:15:41.811Z,1451.00
2023-06-07T10:16:41.908Z,1467.00
2023-06-07T10:17:41.920Z,1471.00
2023-06-07T10:18:41.932Z,1470.00
2023-06-07T10:19:42.090Z,1468.00
2023-06-07T10:20:42.039Z,1463.00
2023-06-07T10:21:42.084Z,1460.00
2023-06-07T10:22:42.097Z,1462.00
2023-06-07T10:23:42.241Z,1477.00
2023-06-07T10:24:42.214Z,1449.00
2023-06-07T10:25:42.235Z,1435.00
2023-06-07T10:26:42.329Z,1447.00
2023-06-07T10:27:42.398Z,1453.00
2023-06-07T10:28:42.418Z,1457.00
2023-06-07T10:29:42.500Z,1465.00
2023-06-07T10:30:42.532Z,1455.00
2023-06-07T10:31:42.603Z,1453.00
2023-06-07T10:32:42.752Z,1461.00
2023-06-07T10:33:42.829Z,1482.00
2023-06-07T10:34:42.724Z,1507.00
2023-06-07T10:35:42.826Z,1514.00
2023-06-07T10:36:42.928Z,1521.00
2023-06-07T10:37:42.949Z,1514.00
2023-06-07T10:38:43.005Z,1513.00
2023-06-07T10:39:43.056Z,1507.00
2023-06-07T10:40:43.064Z,1679.00
2023-06-07T10:41:43.116Z,1696.00
2023-06-07T10:42:43.144Z,1600.00
2023-06-07T10:43:43.154Z,1580.00
2023-06-07T10:44:43.266Z,1538.00
2023-06-07T10:45:43.396Z,1509.00
2023-06-07T10:46:43.352Z,1496.00
2023-06-07T10:47:43.414Z,1504.00
2023-06-07T10:48:43.407Z,1518.00
2023-06-07T10:49:43.610Z,1520.00
2023-06-07T10:50:43.473Z,1468.00
2023-06-07T10:51:43.569Z,1457.00
2023-06-07T10:52:43.526Z,1452.00
2023-06-07T10:53:43.583Z,1438.00
2023-06-07T10:54:43.660Z,1419.00
2023-06-07T10:55:43.712Z,1396.00
2023-06-07T10:56:43.769Z,1388.00
2023-06-07T10:57:43.818Z,1378.00
2023-06-07T10:58:43.773Z,1386.00
2023-06-07T10:59:43.805Z,1386.00
2023-06-07T11:00:43.935Z,1372.00
2023-06-07T11:01:43.933Z,1368.00
2023-06-07T11:02:44.056Z,1388.00
2023-06-07T11:03:44.141Z,1378.00
2023-06-07T11:04:44.326Z,1351.00
2023-06-07T11:05:44.204Z,1317.00
2023-06-07T11:06:44.152Z,1370.00
2023-06-07T11:07:44.233Z,1389.00
2023-06-07T11:08:44.254Z,1360.00
2023-06-07T11:09:44.271Z,1371.00
2023-06-07T11:10:44.373Z,1357.00
2023-06-07T11:11:44.381Z,1343.00
2023-06-07T11:12:44.485Z,1356.00
2023-06-07T11:13:44.551Z,1330.00
2023-06-07T11:14:44.571Z,1336.00
2023-06-07T11:15:44.594Z,1348.00
2023-06-07T11:16:44.681Z,1343.00
2023-06-07T11:17:44.708Z,1321.00
2023-06-07T11:18:44.702Z,1307.00
2023-06-07T11:19:44.762Z,1328.00
2023-06-07T11:20:44.958Z,1322.00
2023-06-07T11:21:44.974Z,1314.00
2023-06-07T11:22:44.920Z,1312.00
2023-06-07T11:23:45.062Z,1335.00
2023-06-07T11:24:46.836Z,1299.00
2023-06-07T11:25:45.157Z,1268.00
2023-06-07T11:26:45.130Z,1230.00
2023-06-07T11:27:45.154Z,1164.00
2023-06-07T11:28:45.244Z,1147.00
2023-06-07T11:29:45.358Z,1113.00
2023-06-07T11:30:45.283Z,1111.00
2023-06-07T11:31:45.322Z,1167.00
2023-06-07T11:32:45.415Z,1193.00
2023-06-07T11:33:45.400Z,1220.00
2023-06-07T11:34:45.457Z,1273.00
2023-06-07T11:35:45.439Z,1264.00
2023-06-07T11:36:45.509Z,1258.00
2023-06-07T11:37:45.488Z,1267.00
2023-06-07T11:38:45.535Z,1273.00
2023-06-07T11:39:45.576Z,1218.00
2023-06-07T11:40:45.621Z,1172.00
2023-06-07T11:41:48.180Z,1100.00
2023-06-07T11:42:45.594Z,1033.00
2023-06-07T11:43:45.598Z,898.00
2023-06-07T11:44:45.619Z,777.00
2023-06-07T11:45:45.633Z,658.00
2023-06-07T11:46:45.617Z,623.00
2023-06-07T11:47:45.693Z,598.00
2023-06-07T11:48:45.641Z,612.00
2023-06-07T11:49:45.608Z,624.00
2023-06-07T11:50:45.620Z,628.00
2023-06-07T11:51:45.626Z,653.00
2023-06-07T11:52:45.637Z,701.00
2023-06-07T11:53:45.617Z,770.00
2023-06-07T11:54:45.577Z,833.00
2023-06-07T11:55:45.564Z,879.00
2023-06-07T11:56:45.625Z,916.00
2023-06-07T11:57:45.611Z,952.00
2023-06-07T11:58:45.578Z,988.00
2023-06-07T11:59:45.573Z,980.00
2023-06-07T12:00:45.584Z,998.00
2023-06-07T12:01:45.558Z,1044.00
2023-06-07T12:02:45.634Z,1051.00
2023-06-07T12:03:45.751Z,1054.00
2023-06-07T12:04:45.734Z,1089.00
2023-06-07T12:05:45.571Z,1083.00
2023-06-07T12:06:45.593Z,1076.00
2023-06-07T12:07:45.563Z,1063.00
2023-06-07T12:08:45.610Z,1064.00
2023-06-07T12:09:45.568Z,1073.00
2023-06-07T12:10:45.581Z,1059.00
2023-06-07T12:11:45.602Z,1055.00
2023-06-07T12:12:45.594Z,1064.00
2023-06-07T12:13:45.601Z,1082.00